メインページ
METAR-TAF:

METAR-TAF

空港 :

O・R・タンボ国際空港

ヨハネスブルグ, 南アフリカ共和国

緯度: 26-08S, 経度: 028-14E, 海抜: 1694m

現時点の気象観測

当レポートは54分前の22:00(UTC)に作成
西の風 5kt
気温 13°C
湿度 54%
気圧 1025 hPa
視程10km以上
1,500メートル以下は雲なし、積乱雲なし

METAR: FAOR 182200Z 28005KT CAVOK 13/04 Q1025 NOSIG

時間: 00:54 (22:54 UTC)

予報

当レポートは6時間54分前の16:00(UTC)に作成
予報は18日の 18時(UTC)から 19日の 24時(UTC)まで有効
西の風 8kt
視程10km以上
1,500メートル以下は雲なし、積乱雲なし
19日の 00時(UTC)から 19日の 02時(UTC)まで徐々に
南西の風 10kt
19日の 17時(UTC)から 19日の 19時(UTC)まで徐々に
西/北西の風 12kt

TAF: FAOR 181600Z 1818/1924 28008KT CAVOK BECMG 1900/1902 22010KT BECMG 1917/1919 30012KT TX19/1913Z TN08/1904Z

4,000以上の空港の気象観測と天気予報(METAR報とTAF報)

利用可能な観測所は地図上に黄色い丸と赤い丸で示す。

丸の上にカーソルを重ねると観測所名を参照できる。

次にクリックすると気象観測と天気予報を参照できる。

マップの切り替え:黒色「×」印の緑ボタンをクリックして拡大、「-」印の緑ボタンをクリックして縮小、緑色の三角印をクリックして隣りの地図に切り替え


METAR-TAF: